sensor_id;sensor_type;location;lat;lon;timestamp;temperature;humidity
74359;DHT22;62792;46.236;6.040;2024-03-25T00:02:27;21.50;37.50
74359;DHT22;62792;46.236;6.040;2024-03-25T00:07:30;21.50;37.30
74359;DHT22;62792;46.236;6.040;2024-03-25T00:12:33;21.50;37.40
74359;DHT22;62792;46.236;6.040;2024-03-25T00:17:35;21.50;37.40
74359;DHT22;62792;46.236;6.040;2024-03-25T00:22:38;21.60;37.20
74359;DHT22;62792;46.236;6.040;2024-03-25T00:27:40;21.60;37.20
74359;DHT22;62792;46.236;6.040;2024-03-25T00:32:42;21.60;37.30
74359;DHT22;62792;46.236;6.040;2024-03-25T00:37:45;21.60;37.30
74359;DHT22;62792;46.236;6.040;2024-03-25T00:42:47;21.50;37.20
74359;DHT22;62792;46.236;6.040;2024-03-25T00:47:49;21.50;37.30
74359;DHT22;62792;46.236;6.040;2024-03-25T00:52:52;21.50;37.30
74359;DHT22;62792;46.236;6.040;2024-03-25T00:57:54;21.50;37.30
74359;DHT22;62792;46.236;6.040;2024-03-25T01:02:56;21.60;37.20
74359;DHT22;62792;46.236;6.040;2024-03-25T01:07:59;21.60;37.10
74359;DHT22;62792;46.236;6.040;2024-03-25T01:13:01;21.50;37.20
74359;DHT22;62792;46.236;6.040;2024-03-25T01:18:03;21.60;37.10
74359;DHT22;62792;46.236;6.040;2024-03-25T01:23:07;21.50;37.00
74359;DHT22;62792;46.236;6.040;2024-03-25T01:28:09;21.50;37.10
74359;DHT22;62792;46.236;6.040;2024-03-25T01:33:11;21.50;37.10
74359;DHT22;62792;46.236;6.040;2024-03-25T01:38:14;21.50;36.80
74359;DHT22;62792;46.236;6.040;2024-03-25T01:43:16;21.50;36.90
74359;DHT22;62792;46.236;6.040;2024-03-25T01:48:18;21.60;36.90
74359;DHT22;62792;46.236;6.040;2024-03-25T01:53:21;21.50;37.00
74359;DHT22;62792;46.236;6.040;2024-03-25T01:58:24;21.50;36.80
74359;DHT22;62792;46.236;6.040;2024-03-25T02:03:27;21.50;36.90
74359;DHT22;62792;46.236;6.040;2024-03-25T02:08:30;21.50;36.80
74359;DHT22;62792;46.236;6.040;2024-03-25T02:13:32;21.60;36.80
74359;DHT22;62792;46.236;6.040;2024-03-25T02:18:35;21.50;36.80
74359;DHT22;62792;46.236;6.040;2024-03-25T02:23:39;21.60;36.90
74359;DHT22;62792;46.236;6.040;2024-03-25T02:28:43;21.50;36.80
74359;DHT22;62792;46.236;6.040;2024-03-25T02:33:45;21.60;36.80
74359;DHT22;62792;46.236;6.040;2024-03-25T02:38:47;21.50;36.80
74359;DHT22;62792;46.236;6.040;2024-03-25T02:43:50;21.50;36.50
74359;DHT22;62792;46.236;6.040;2024-03-25T02:48:52;21.50;36.70
74359;DHT22;62792;46.236;6.040;2024-03-25T02:53:54;21.50;36.50
74359;DHT22;62792;46.236;6.040;2024-03-25T02:58:58;21.50;36.60
74359;DHT22;62792;46.236;6.040;2024-03-25T03:03:59;21.60;36.40
74359;DHT22;62792;46.236;6.040;2024-03-25T03:09:01;21.40;36.60
74359;DHT22;62792;46.236;6.040;2024-03-25T03:14:05;21.50;36.40
74359;DHT22;62792;46.236;6.040;2024-03-25T03:19:06;21.50;36.40
74359;DHT22;62792;46.236;6.040;2024-03-25T03:24:08;21.40;36.50
74359;DHT22;62792;46.236;6.040;2024-03-25T03:29:12;21.40;36.50
74359;DHT22;62792;46.236;6.040;2024-03-25T03:34:14;21.50;36.40
74359;DHT22;62792;46.236;6.040;2024-03-25T03:39:15;21.50;36.40
74359;DHT22;62792;46.236;6.040;2024-03-25T03:44:19;21.40;36.50
74359;DHT22;62792;46.236;6.040;2024-03-25T03:49:21;21.40;36.70
74359;DHT22;62792;46.236;6.040;2024-03-25T03:54:23;21.30;36.50
74359;DHT22;62792;46.236;6.040;2024-03-25T03:59:27;21.30;36.40
74359;DHT22;62792;46.236;6.040;2024-03-25T04:04:29;21.40;36.60
74359;DHT22;62792;46.236;6.040;2024-03-25T04:09:31;21.50;36.40
74359;DHT22;62792;46.236;6.040;2024-03-25T04:14:34;21.60;36.30
74359;DHT22;62792;46.236;6.040;2024-03-25T04:19:36;21.70;36.20
74359;DHT22;62792;46.236;6.040;2024-03-25T04:24:38;21.90;36.20
74359;DHT22;62792;46.236;6.040;2024-03-25T04:29:41;21.90;36.20
74359;DHT22;62792;46.236;6.040;2024-03-25T04:34:43;22.00;36.20
74359;DHT22;62792;46.236;6.040;2024-03-25T04:39:45;21.90;36.20
74359;DHT22;62792;46.236;6.040;2024-03-25T04:44:48;22.00;36.20
74359;DHT22;62792;46.236;6.040;2024-03-25T04:49:49;22.00;36.10
74359;DHT22;62792;46.236;6.040;2024-03-25T04:54:50;21.90;36.00
74359;DHT22;62792;46.236;6.040;2024-03-25T04:59:52;22.00;36.00
74359;DHT22;62792;46.236;6.040;2024-03-25T05:04:53;21.90;36.00
74359;DHT22;62792;46.236;6.040;2024-03-25T05:09:54;22.10;36.00
74359;DHT22;62792;46.236;6.040;2024-03-25T05:14:57;22.00;35.90
74359;DHT22;62792;46.236;6.040;2024-03-25T05:19:58;22.10;36.00
74359;DHT22;62792;46.236;6.040;2024-03-25T05:24:59;22.10;36.00
74359;DHT22;62792;46.236;6.040;2024-03-25T05:30:01;22.00;35.90
74359;DHT22;62792;46.236;6.040;2024-03-25T05:35:03;22.10;35.90
74359;DHT22;62792;46.236;6.040;2024-03-25T05:40:05;22.00;35.90
74359;DHT22;62792;46.236;6.040;2024-03-25T05:45:08;22.10;35.70
74359;DHT22;62792;46.236;6.040;2024-03-25T05:50:10;22.10;35.70
74359;DHT22;62792;46.236;6.040;2024-03-25T05:55:11;22.10;35.60
74359;DHT22;62792;46.236;6.040;2024-03-25T06:00:14;22.20;35.50
74359;DHT22;62792;46.236;6.040;2024-03-25T06:05:15;22.20;35.60
74359;DHT22;62792;46.236;6.040;2024-03-25T06:10:16;22.20;35.60
74359;DHT22;62792;46.236;6.040;2024-03-25T06:15:19;22.20;35.70
74359;DHT22;62792;46.236;6.040;2024-03-25T06:20:20;22.30;35.40
74359;DHT22;62792;46.236;6.040;2024-03-25T06:25:21;22.30;35.50
74359;DHT22;62792;46.236;6.040;2024-03-25T06:30:23;22.30;35.40
74359;DHT22;62792;46.236;6.040;2024-03-25T06:35:43;22.20;35.60
74359;DHT22;62792;46.236;6.040;2024-03-25T06:40:44;22.20;35.60
74359;DHT22;62792;46.236;6.040;2024-03-25T06:45:47;22.30;35.50
74359;DHT22;62792;46.236;6.040;2024-03-25T06:50:54;22.30;35.40
74359;DHT22;62792;46.236;6.040;2024-03-25T06:55:56;22.30;35.50
74359;DHT22;62792;46.236;6.040;2024-03-25T07:01:04;22.40;35.30
74359;DHT22;62792;46.236;6.040;2024-03-25T07:06:06;22.30;35.50
74359;DHT22;62792;46.236;6.040;2024-03-25T07:11:07;22.40;35.40
74359;DHT22;62792;46.236;6.040;2024-03-25T07:16:09;22.30;35.50
74359;DHT22;62792;46.236;6.040;2024-03-25T07:21:10;22.30;35.20
74359;DHT22;62792;46.236;6.040;2024-03-25T07:26:11;22.40;35.60
74359;DHT22;62792;46.236;6.040;2024-03-25T07:31:14;22.40;35.40
74359;DHT22;62792;46.236;6.040;2024-03-25T07:36:15;22.30;35.50
74359;DHT22;62792;46.236;6.040;2024-03-25T07:41:16;22.40;35.40
74359;DHT22;62792;46.236;6.040;2024-03-25T07:46:18;22.40;35.40
74359;DHT22;62792;46.236;6.040;2024-03-25T07:51:19;22.30;35.80
74359;DHT22;62792;46.236;6.040;2024-03-25T07:56:20;22.40;35.70
74359;DHT22;62792;46.236;6.040;2024-03-25T08:01:23;22.40;35.70
74359;DHT22;62792;46.236;6.040;2024-03-25T08:06:24;22.30;35.50
74359;DHT22;62792;46.236;6.040;2024-03-25T08:11:25;22.30;35.70
74359;DHT22;62792;46.236;6.040;2024-03-25T08:16:28;22.40;35.70
74359;DHT22;62792;46.236;6.040;2024-03-25T08:21:29;22.30;35.70
74359;DHT22;62792;46.236;6.040;2024-03-25T08:26:31;22.40;35.80
74359;DHT22;62792;46.236;6.040;2024-03-25T08:31:33;22.40;35.80
74359;DHT22;62792;46.236;6.040;2024-03-25T08:36:34;22.40;35.90
74359;DHT22;62792;46.236;6.040;2024-03-25T08:41:35;22.30;36.10
74359;DHT22;62792;46.236;6.040;2024-03-25T08:46:38;22.40;36.00
74359;DHT22;62792;46.236;6.040;2024-03-25T08:51:39;22.40;36.00
74359;DHT22;62792;46.236;6.040;2024-03-25T08:56:40;22.40;36.00
74359;DHT22;62792;46.236;6.040;2024-03-25T09:01:43;22.40;36.20
74359;DHT22;62792;46.236;6.040;2024-03-25T09:06:44;22.40;36.00
74359;DHT22;62792;46.236;6.040;2024-03-25T09:11:45;22.40;36.30
74359;DHT22;62792;46.236;6.040;2024-03-25T09:16:48;22.50;36.30
74359;DHT22;62792;46.236;6.040;2024-03-25T09:21:49;22.40;36.40
74359;DHT22;62792;46.236;6.040;2024-03-25T09:26:50;22.40;36.30
74359;DHT22;62792;46.236;6.040;2024-03-25T09:31:52;22.50;36.20
74359;DHT22;62792;46.236;6.040;2024-03-25T09:36:54;22.50;36.50
74359;DHT22;62792;46.236;6.040;2024-03-25T09:41:55;22.50;36.40
74359;DHT22;62792;46.236;6.040;2024-03-25T09:46:58;22.50;36.40
74359;DHT22;62792;46.236;6.040;2024-03-25T09:51:59;22.60;36.30
74359;DHT22;62792;46.236;6.040;2024-03-25T09:57:00;22.60;36.40
74359;DHT22;62792;46.236;6.040;2024-03-25T10:02:03;22.60;36.40
74359;DHT22;62792;46.236;6.040;2024-03-25T10:07:04;22.60;36.40
74359;DHT22;62792;46.236;6.040;2024-03-25T10:12:05;22.60;36.50
74359;DHT22;62792;46.236;6.040;2024-03-25T10:17:08;22.60;36.50
74359;DHT22;62792;46.236;6.040;2024-03-25T10:22:09;22.70;36.50
74359;DHT22;62792;46.236;6.040;2024-03-25T10:27:10;22.60;36.40
74359;DHT22;62792;46.236;6.040;2024-03-25T10:32:19;22.70;36.50
74359;DHT22;62792;46.236;6.040;2024-03-25T10:37:20;22.70;36.40
74359;DHT22;62792;46.236;6.040;2024-03-25T10:42:22;22.70;36.40
74359;DHT22;62792;46.236;6.040;2024-03-25T10:47:28;22.80;36.60
74359;DHT22;62792;46.236;6.040;2024-03-25T10:52:29;22.80;36.50
74359;DHT22;62792;46.236;6.040;2024-03-25T10:57:30;22.80;36.50
74359;DHT22;62792;46.236;6.040;2024-03-25T11:02:33;22.90;36.50
74359;DHT22;62792;46.236;6.040;2024-03-25T11:07:34;22.90;36.50
74359;DHT22;62792;46.236;6.040;2024-03-25T11:12:35;22.90;36.50
74359;DHT22;62792;46.236;6.040;2024-03-25T11:17:47;22.80;36.50
74359;DHT22;62792;46.236;6.040;2024-03-25T11:22:49;23.00;36.50
74359;DHT22;62792;46.236;6.040;2024-03-25T11:27:50;23.00;36.40
74359;DHT22;62792;46.236;6.040;2024-03-25T11:32:53;22.80;36.70
74359;DHT22;62792;46.236;6.040;2024-03-25T11:37:55;22.90;36.60
74359;DHT22;62792;46.236;6.040;2024-03-25T11:42:56;23.00;36.60
74359;DHT22;62792;46.236;6.040;2024-03-25T11:47:58;23.00;36.60
74359;DHT22;62792;46.236;6.040;2024-03-25T11:52:59;23.00;36.60
74359;DHT22;62792;46.236;6.040;2024-03-25T11:58:00;23.00;36.50
74359;DHT22;62792;46.236;6.040;2024-03-25T12:03:03;23.00;36.80
74359;DHT22;62792;46.236;6.040;2024-03-25T12:08:04;22.90;36.70
74359;DHT22;62792;46.236;6.040;2024-03-25T12:13:06;23.00;36.60
74359;DHT22;62792;46.236;6.040;2024-03-25T12:18:10;22.90;36.70
74359;DHT22;62792;46.236;6.040;2024-03-25T12:23:11;23.00;36.60
74359;DHT22;62792;46.236;6.040;2024-03-25T12:28:12;23.10;36.80
74359;DHT22;62792;46.236;6.040;2024-03-25T12:33:14;23.10;37.20
74359;DHT22;62792;46.236;6.040;2024-03-25T12:38:23;23.30;37.60
74359;DHT22;62792;46.236;6.040;2024-03-25T12:43:24;23.40;37.60
74359;DHT22;62792;46.236;6.040;2024-03-25T12:48:28;23.60;37.60
74359;DHT22;62792;46.236;6.040;2024-03-25T12:53:29;23.70;36.90
74359;DHT22;62792;46.236;6.040;2024-03-25T12:58:30;23.40;36.80
74359;DHT22;62792;46.236;6.040;2024-03-25T13:03:32;23.20;36.50
74359;DHT22;62792;46.236;6.040;2024-03-25T13:08:33;23.00;35.80
74359;DHT22;62792;46.236;6.040;2024-03-25T13:13:34;23.00;35.50
74359;DHT22;62792;46.236;6.040;2024-03-25T13:18:36;23.30;36.40
74359;DHT22;62792;46.236;6.040;2024-03-25T13:23:37;23.80;35.90
74359;DHT22;62792;46.236;6.040;2024-03-25T13:28:38;23.80;36.40
74359;DHT22;62792;46.236;6.040;2024-03-25T13:33:41;23.80;36.80
74359;DHT22;62792;46.236;6.040;2024-03-25T13:38:42;23.90;37.00
74359;DHT22;62792;46.236;6.040;2024-03-25T13:43:43;24.00;37.30
74359;DHT22;62792;46.236;6.040;2024-03-25T13:48:46;24.10;37.20
74359;DHT22;62792;46.236;6.040;2024-03-25T13:53:48;24.00;37.00
74359;DHT22;62792;46.236;6.040;2024-03-25T13:58:49;24.00;37.10
74359;DHT22;62792;46.236;6.040;2024-03-25T14:03:51;24.10;37.40
74359;DHT22;62792;46.236;6.040;2024-03-25T14:08:52;24.30;37.30
74359;DHT22;62792;46.236;6.040;2024-03-25T14:13:53;24.30;37.40
74359;DHT22;62792;46.236;6.040;2024-03-25T14:18:55;24.20;37.30
74359;DHT22;62792;46.236;6.040;2024-03-25T14:23:56;24.10;37.20
74359;DHT22;62792;46.236;6.040;2024-03-25T14:28:58;24.00;37.10
74359;DHT22;62792;46.236;6.040;2024-03-25T14:34:00;23.90;37.10
74359;DHT22;62792;46.236;6.040;2024-03-25T14:39:01;24.10;36.90
74359;DHT22;62792;46.236;6.040;2024-03-25T14:44:03;24.10;37.20
74359;DHT22;62792;46.236;6.040;2024-03-25T14:49:06;24.20;37.40
74359;DHT22;62792;46.236;6.040;2024-03-25T14:54:07;24.20;36.80
74359;DHT22;62792;46.236;6.040;2024-03-25T14:59:08;24.40;37.20
74359;DHT22;62792;46.236;6.040;2024-03-25T15:04:13;24.50;37.00
74359;DHT22;62792;46.236;6.040;2024-03-25T15:09:14;24.80;36.70
74359;DHT22;62792;46.236;6.040;2024-03-25T15:14:15;24.80;36.40
74359;DHT22;62792;46.236;6.040;2024-03-25T15:19:17;24.80;36.40
74359;DHT22;62792;46.236;6.040;2024-03-25T15:24:18;24.70;36.10
74359;DHT22;62792;46.236;6.040;2024-03-25T15:29:19;24.50;36.20
74359;DHT22;62792;46.236;6.040;2024-03-25T15:34:22;24.40;36.20
74359;DHT22;62792;46.236;6.040;2024-03-25T15:39:23;24.40;36.40
74359;DHT22;62792;46.236;6.040;2024-03-25T15:44:24;24.30;36.20
74359;DHT22;62792;46.236;6.040;2024-03-25T15:49:26;24.50;36.20
74359;DHT22;62792;46.236;6.040;2024-03-25T15:54:27;24.60;36.20
74359;DHT22;62792;46.236;6.040;2024-03-25T15:59:28;24.60;36.10
74359;DHT22;62792;46.236;6.040;2024-03-25T16:04:31;24.50;36.10
74359;DHT22;62792;46.236;6.040;2024-03-25T16:09:32;24.50;36.10
74359;DHT22;62792;46.236;6.040;2024-03-25T16:14:33;24.40;36.50
74359;DHT22;62792;46.236;6.040;2024-03-25T16:19:36;24.20;36.30
74359;DHT22;62792;46.236;6.040;2024-03-25T16:24:37;24.10;35.90
74359;DHT22;62792;46.236;6.040;2024-03-25T16:29:38;24.20;35.90
74359;DHT22;62792;46.236;6.040;2024-03-25T16:34:40;24.30;35.90
74359;DHT22;62792;46.236;6.040;2024-03-25T16:39:41;24.20;36.00
74359;DHT22;62792;46.236;6.040;2024-03-25T16:44:42;24.20;36.00
74359;DHT22;62792;46.236;6.040;2024-03-25T16:49:45;24.20;36.30
74359;DHT22;62792;46.236;6.040;2024-03-25T16:54:46;24.10;36.40
74359;DHT22;62792;46.236;6.040;2024-03-25T16:59:47;24.00;36.60
74359;DHT22;62792;46.236;6.040;2024-03-25T17:04:49;24.00;36.60
74359;DHT22;62792;46.236;6.040;2024-03-25T17:09:50;24.00;36.80
74359;DHT22;62792;46.236;6.040;2024-03-25T17:14:51;24.00;36.90
74359;DHT22;62792;46.236;6.040;2024-03-25T17:19:54;24.00;36.70
74359;DHT22;62792;46.236;6.040;2024-03-25T17:24:55;23.90;36.90
74359;DHT22;62792;46.236;6.040;2024-03-25T17:29:56;23.80;36.80
74359;DHT22;62792;46.236;6.040;2024-03-25T17:34:59;23.80;36.90
74359;DHT22;62792;46.236;6.040;2024-03-25T17:40:00;23.70;37.00
74359;DHT22;62792;46.236;6.040;2024-03-25T17:45:01;23.70;37.00
74359;DHT22;62792;46.236;6.040;2024-03-25T17:50:04;23.60;36.90
74359;DHT22;62792;46.236;6.040;2024-03-25T17:55:06;23.70;36.80
74359;DHT22;62792;46.236;6.040;2024-03-25T18:00:08;23.60;36.90
74359;DHT22;62792;46.236;6.040;2024-03-25T18:05:11;23.60;37.60
74359;DHT22;62792;46.236;6.040;2024-03-25T18:10:15;23.50;37.60
74359;DHT22;62792;46.236;6.040;2024-03-25T18:15:16;23.50;37.70
74359;DHT22;62792;46.236;6.040;2024-03-25T18:20:19;23.40;37.70
74359;DHT22;62792;46.236;6.040;2024-03-25T18:25:20;23.40;37.60
74359;DHT22;62792;46.236;6.040;2024-03-25T18:30:21;23.40;37.70
74359;DHT22;62792;46.236;6.040;2024-03-25T18:35:23;23.40;37.60
74359;DHT22;62792;46.236;6.040;2024-03-25T18:40:24;23.30;37.70
74359;DHT22;62792;46.236;6.040;2024-03-25T18:45:25;23.30;37.70
74359;DHT22;62792;46.236;6.040;2024-03-25T18:50:28;23.30;37.80
74359;DHT22;62792;46.236;6.040;2024-03-25T18:55:29;23.20;37.60
74359;DHT22;62792;46.236;6.040;2024-03-25T19:00:30;23.20;37.60
74359;DHT22;62792;46.236;6.040;2024-03-25T19:05:32;23.10;37.70
74359;DHT22;62792;46.236;6.040;2024-03-25T19:10:36;23.10;37.70
74359;DHT22;62792;46.236;6.040;2024-03-25T19:15:37;23.00;37.90
74359;DHT22;62792;46.236;6.040;2024-03-25T19:20:39;23.00;37.70
74359;DHT22;62792;46.236;6.040;2024-03-25T19:25:41;22.90;37.70
74359;DHT22;62792;46.236;6.040;2024-03-25T19:30:42;22.90;37.60
74359;DHT22;62792;46.236;6.040;2024-03-25T19:35:44;22.90;37.50
74359;DHT22;62792;46.236;6.040;2024-03-25T19:40:45;22.80;37.50
74359;DHT22;62792;46.236;6.040;2024-03-25T19:45:46;22.80;37.70
74359;DHT22;62792;46.236;6.040;2024-03-25T19:50:48;22.70;37.50
74359;DHT22;62792;46.236;6.040;2024-03-25T19:55:56;22.80;37.50
74359;DHT22;62792;46.236;6.040;2024-03-25T20:01:04;22.70;37.70
74359;DHT22;62792;46.236;6.040;2024-03-25T20:06:07;22.70;37.60
74359;DHT22;62792;46.236;6.040;2024-03-25T20:11:08;22.70;37.60
74359;DHT22;62792;46.236;6.040;2024-03-25T20:16:09;22.60;37.50
74359;DHT22;62792;46.236;6.040;2024-03-25T20:21:12;22.60;37.60
74359;DHT22;62792;46.236;6.040;2024-03-25T20:26:13;22.60;37.80
74359;DHT22;62792;46.236;6.040;2024-03-25T20:31:14;22.60;37.60
74359;DHT22;62792;46.236;6.040;2024-03-25T20:36:17;22.60;37.70
74359;DHT22;62792;46.236;6.040;2024-03-25T20:41:18;22.60;37.80
74359;DHT22;62792;46.236;6.040;2024-03-25T20:46:19;22.60;37.70
74359;DHT22;62792;46.236;6.040;2024-03-25T20:51:22;22.50;37.70
74359;DHT22;62792;46.236;6.040;2024-03-25T20:56:23;22.50;37.70
74359;DHT22;62792;46.236;6.040;2024-03-25T21:01:24;22.50;37.70
74359;DHT22;62792;46.236;6.040;2024-03-25T21:06:26;22.50;37.70
74359;DHT22;62792;46.236;6.040;2024-03-25T21:11:27;22.50;37.60
74359;DHT22;62792;46.236;6.040;2024-03-25T21:16:28;22.50;37.70
74359;DHT22;62792;46.236;6.040;2024-03-25T21:21:31;22.40;37.70
74359;DHT22;62792;46.236;6.040;2024-03-25T21:26:32;22.40;37.70
74359;DHT22;62792;46.236;6.040;2024-03-25T21:31:33;22.50;37.60
74359;DHT22;62792;46.236;6.040;2024-03-25T21:36:36;22.40;37.70
74359;DHT22;62792;46.236;6.040;2024-03-25T21:41:37;22.40;37.80
74359;DHT22;62792;46.236;6.040;2024-03-25T21:46:38;22.40;37.80
74359;DHT22;62792;46.236;6.040;2024-03-25T21:51:40;22.40;37.80
74359;DHT22;62792;46.236;6.040;2024-03-25T21:56:41;22.40;37.80
74359;DHT22;62792;46.236;6.040;2024-03-25T22:01:42;22.40;37.80
74359;DHT22;62792;46.236;6.040;2024-03-25T22:06:45;22.40;37.70
74359;DHT22;62792;46.236;6.040;2024-03-25T22:11:46;22.30;38.00
74359;DHT22;62792;46.236;6.040;2024-03-25T22:16:47;22.40;37.80
74359;DHT22;62792;46.236;6.040;2024-03-25T22:21:50;22.40;37.60
74359;DHT22;62792;46.236;6.040;2024-03-25T22:26:51;22.40;37.90
74359;DHT22;62792;46.236;6.040;2024-03-25T22:31:52;22.30;37.80
74359;DHT22;62792;46.236;6.040;2024-03-25T22:36:54;22.40;38.10
74359;DHT22;62792;46.236;6.040;2024-03-25T22:41:55;22.30;38.00
74359;DHT22;62792;46.236;6.040;2024-03-25T22:46:56;22.30;38.00
74359;DHT22;62792;46.236;6.040;2024-03-25T22:51:58;22.30;38.00
74359;DHT22;62792;46.236;6.040;2024-03-25T22:56:59;22.30;38.20
74359;DHT22;62792;46.236;6.040;2024-03-25T23:02:00;22.30;38.10
74359;DHT22;62792;46.236;6.040;2024-03-25T23:07:04;22.30;38.10
74359;DHT22;62792;46.236;6.040;2024-03-25T23:12:06;22.30;38.10
74359;DHT22;62792;46.236;6.040;2024-03-25T23:17:07;22.20;38.20
74359;DHT22;62792;46.236;6.040;2024-03-25T23:22:09;22.20;38.00
74359;DHT22;62792;46.236;6.040;2024-03-25T23:27:10;22.30;38.10
74359;DHT22;62792;46.236;6.040;2024-03-25T23:32:11;22.30;38.10
74359;DHT22;62792;46.236;6.040;2024-03-25T23:37:14;22.30;38.40
74359;DHT22;62792;46.236;6.040;2024-03-25T23:42:15;22.20;38.20
74359;DHT22;62792;46.236;6.040;2024-03-25T23:47:16;22.20;38.40
74359;DHT22;62792;46.236;6.040;2024-03-25T23:52:18;22.30;38.40
74359;DHT22;62792;46.236;6.040;2024-03-25T23:57:19;22.20;38.20
